Waimea, HI

10:39 PM HST am 20. Oktober 2014 (GMT -1000)
Barking Sands PMRF | Change Station
CLOSE
Current Station
Flughafen
Location: Barking Sands,
Höhe: 13 ft
Wetterstationen in der Umgebung
aktive Warnung: High Surf Advisory

Höhe 13 ft 22.02 °N, 159.79 °W | Updated 43 minutes ago

Clear
Heiter
77 °F
gefühlte 77 °F
N
6
Wind Wechselnd Wind aus Ost-Südost

Heute
Max. -- | schwach -- °F
--% Regenrisiko
Gestern
Max. -- | schwach -- °F
Precip. -- inch
6:36 AM 6:09 PM
Letztes Viertel, 6% visible
Druck 30.02 inch
Sichtweite 10.0 Meilen
Wolken Heiter
Taupunkt 70 °F
Feuchtigkeit 79%
Regen 0.00 inch
Schneehöhe Nicht verfügbar..
UV 0 von 12
Pollen Nicht verfügbar..
Luftqualität Nicht verfügbar..
Flu Activity Sporadic
METAR PHBK 210756Z AUTO 12005KT 10SM CLR 25/21 A3001 RMK AO2 SLP165 T02500211

More Conditions Fewer Conditions

Druck 30.02 inch
Sichtweite 10.0 Meilen
Wolken Heiter
Taupunkt 70 °F
Feuchtigkeit 79%
Regen 0.00 inch
Schneehöhe Nicht verfügbar..
UV 0 von 12
Pollen Nicht verfügbar..
Luftqualität Nicht verfügbar..
Flu Activity Sporadic
METAR PHBK 210756Z AUTO 12005KT 10SM CLR 25/21 A3001 RMK AO2 SLP165 T02500211

More Conditions Fewer Conditions

10-Day Weather Forecast

Almanac

Astronomie

Oct. 20, 2014 Aufgang Untergang
Genaue Zeit 06:36 HST 18:09 HST
Bürgerliche Dämmerung 06:14 HST 18:32 HST
Nautische Dämmerung 05:48 HST 18:58 HST
Astronomische Dämmerung 05:22 HST 19:24 HST
Mond 03:57 HST (10/20) 16:20 HST (10/20)
Länge des sichtbaren Lichts 12h 18m
Tageslänge
11h 32m
Tomorrow will be 1m 11s shorter.
Letztes Viertel, 6% of the Moon is Illuminated
Okt 21
Letztes Viertel
Okt 23
Neu
Okt 30
Erstes Viertel
Nov 6
Vollmond
Nov 14
Letztes Viertel

Gestrige Extrema

State Highs State Lows

Community

WunderPhotos

Upload Photos

1,763,619 Fotos hochgeladen!

Nearby

Schneehöhe

Station Depth Höhe
Kein Neuschnee gemeldet.

Erdbebenaktivität

Stadt Distance Mag. Time & Date
No recent earthquake activity has been reported nearby.
Minimum magnitude displayed is 2.5.

küstennahe Wassertemperaturen

Ort Temperatur
Kein Stationsbericht

Wetterstationen in der Umgebung